Аэропорт: Днепропетровск. Днепропетровск

ICAO: UKDD

METAR:
2018/09/23 11:00
UKDD 231100Z 33006MPS 9999 SCT009 BKN033CB 12/11 Q1017 R26/220354 NOSIG
METAR:
2018/09/23 06:09
TAF UKDD 230502Z 2306/2406 34006MPS 9999 SCT025CB BKN030 
      TEMPO 2306/2314 33008G13MPS 2100 -SHRA SCT007 BKN020CB PROB40 
      TEMPO 2306/2314 -TSRA BKN015CB 
      BECMG 2315/2317 VRB01MPS